sensor_id;sensor_type;location;lat;lon;timestamp;P1;durP1;ratioP1;P2;durP2;ratioP2
1725;SDS011;41776;48.260;8.928;2023-02-28T00:01:13;5.20;;;3.67;;
1725;SDS011;41776;48.260;8.928;2023-02-28T00:03:40;8.30;;;3.53;;
1725;SDS011;41776;48.260;8.928;2023-02-28T00:06:07;5.20;;;3.30;;
1725;SDS011;41776;48.260;8.928;2023-02-28T00:08:35;6.43;;;3.47;;
1725;SDS011;41776;48.260;8.928;2023-02-28T00:11:02;6.57;;;3.43;;
1725;SDS011;41776;48.260;8.928;2023-02-28T00:13:29;6.77;;;3.40;;
1725;SDS011;41776;48.260;8.928;2023-02-28T00:16:00;7.37;;;3.80;;
1725;SDS011;41776;48.260;8.928;2023-02-28T00:18:27;5.70;;;3.07;;
1725;SDS011;41776;48.260;8.928;2023-02-28T00:20:54;5.50;;;3.20;;
1725;SDS011;41776;48.260;8.928;2023-02-28T00:23:20;8.63;;;3.80;;
1725;SDS011;41776;48.260;8.928;2023-02-28T00:25:47;6.33;;;3.63;;
1725;SDS011;41776;48.260;8.928;2023-02-28T00:28:13;6.60;;;4.17;;
1725;SDS011;41776;48.260;8.928;2023-02-28T00:30:40;5.70;;;3.33;;
1725;SDS011;41776;48.260;8.928;2023-02-28T00:33:08;6.20;;;3.77;;
1725;SDS011;41776;48.260;8.928;2023-02-28T00:35:34;6.43;;;3.63;;
1725;SDS011;41776;48.260;8.928;2023-02-28T00:38:01;8.60;;;3.57;;
1725;SDS011;41776;48.260;8.928;2023-02-28T00:40:27;6.00;;;3.37;;
1725;SDS011;41776;48.260;8.928;2023-02-28T00:42:54;7.43;;;3.83;;
1725;SDS011;41776;48.260;8.928;2023-02-28T00:45:20;6.23;;;3.50;;
1725;SDS011;41776;48.260;8.928;2023-02-28T00:47:47;5.80;;;3.53;;
1725;SDS011;41776;48.260;8.928;2023-02-28T00:50:16;6.20;;;3.43;;
1725;SDS011;41776;48.260;8.928;2023-02-28T00:52:43;8.87;;;3.83;;
1725;SDS011;41776;48.260;8.928;2023-02-28T00:55:10;7.77;;;3.90;;
1725;SDS011;41776;48.260;8.928;2023-02-28T00:57:36;6.90;;;3.67;;
1725;SDS011;41776;48.260;8.928;2023-02-28T01:00:03;5.37;;;3.50;;
1725;SDS011;41776;48.260;8.928;2023-02-28T01:02:31;6.80;;;3.43;;
1725;SDS011;41776;48.260;8.928;2023-02-28T01:04:57;6.93;;;3.60;;
1725;SDS011;41776;48.260;8.928;2023-02-28T01:07:25;8.37;;;3.83;;
1725;SDS011;41776;48.260;8.928;2023-02-28T01:09:52;6.47;;;3.80;;
1725;SDS011;41776;48.260;8.928;2023-02-28T01:12:18;8.10;;;4.17;;
1725;SDS011;41776;48.260;8.928;2023-02-28T01:14:45;6.60;;;3.90;;
1725;SDS011;41776;48.260;8.928;2023-02-28T01:17:11;6.63;;;3.57;;
1725;SDS011;41776;48.260;8.928;2023-02-28T01:19:38;7.30;;;3.73;;
1725;SDS011;41776;48.260;8.928;2023-02-28T01:22:05;4.97;;;3.60;;
1725;SDS011;41776;48.260;8.928;2023-02-28T01:24:33;9.53;;;3.77;;
1725;SDS011;41776;48.260;8.928;2023-02-28T01:27:00;8.63;;;3.80;;
1725;SDS011;41776;48.260;8.928;2023-02-28T01:29:26;8.00;;;4.00;;
1725;SDS011;41776;48.260;8.928;2023-02-28T01:31:53;6.10;;;3.40;;
1725;SDS011;41776;48.260;8.928;2023-02-28T01:34:19;7.47;;;4.00;;
1725;SDS011;41776;48.260;8.928;2023-02-28T01:36:46;7.20;;;3.57;;
1725;SDS011;41776;48.260;8.928;2023-02-28T01:39:12;7.10;;;3.83;;
1725;SDS011;41776;48.260;8.928;2023-02-28T01:41:40;9.30;;;4.03;;
1725;SDS011;41776;48.260;8.928;2023-02-28T01:47:07;8.83;;;3.70;;
1725;SDS011;41776;48.260;8.928;2023-02-28T01:49:34;7.23;;;3.80;;
1725;SDS011;41776;48.260;8.928;2023-02-28T01:52:00;9.10;;;4.17;;
1725;SDS011;41776;48.260;8.928;2023-02-28T01:54:29;7.47;;;4.20;;
1725;SDS011;41776;48.260;8.928;2023-02-28T01:57:00;5.87;;;4.17;;
1725;SDS011;41776;48.260;8.928;2023-02-28T01:59:31;6.97;;;4.07;;
1725;SDS011;41776;48.260;8.928;2023-02-28T02:02:02;8.20;;;3.97;;
1725;SDS011;41776;48.260;8.928;2023-02-28T02:04:31;6.17;;;4.00;;
1725;SDS011;41776;48.260;8.928;2023-02-28T02:07:01;6.37;;;4.20;;
1725;SDS011;41776;48.260;8.928;2023-02-28T02:09:29;8.70;;;4.23;;
1725;SDS011;41776;48.260;8.928;2023-02-28T02:11:56;9.30;;;4.00;;
1725;SDS011;41776;48.260;8.928;2023-02-28T02:17:19;4.90;;;3.67;;
1725;SDS011;41776;48.260;8.928;2023-02-28T02:19:59;8.57;;;3.97;;
1725;SDS011;41776;48.260;8.928;2023-02-28T02:22:53;7.20;;;4.20;;
1725;SDS011;41776;48.260;8.928;2023-02-28T02:25:45;6.07;;;4.00;;
1725;SDS011;41776;48.260;8.928;2023-02-28T02:31:29;7.53;;;4.43;;
1725;SDS011;41776;48.260;8.928;2023-02-28T02:37:09;6.43;;;4.37;;
1725;SDS011;41776;48.260;8.928;2023-02-28T02:39:44;7.53;;;4.40;;
1725;SDS011;41776;48.260;8.928;2023-02-28T02:42:19;8.80;;;4.73;;
1725;SDS011;41776;48.260;8.928;2023-02-28T02:44:51;6.43;;;3.73;;
1725;SDS011;41776;48.260;8.928;2023-02-28T02:47:24;9.03;;;4.17;;
1725;SDS011;41776;48.260;8.928;2023-02-28T02:49:55;9.50;;;3.93;;
1725;SDS011;41776;48.260;8.928;2023-02-28T02:52:28;7.33;;;4.30;;
1725;SDS011;41776;48.260;8.928;2023-02-28T02:54:59;8.77;;;4.20;;
1725;SDS011;41776;48.260;8.928;2023-02-28T02:57:29;8.83;;;4.33;;
1725;SDS011;41776;48.260;8.928;2023-02-28T03:00:00;7.60;;;4.10;;
1725;SDS011;41776;48.260;8.928;2023-02-28T03:02:30;7.07;;;3.70;;
1725;SDS011;41776;48.260;8.928;2023-02-28T03:04:59;7.30;;;4.53;;
1725;SDS011;41776;48.260;8.928;2023-02-28T03:07:30;6.87;;;3.60;;
1725;SDS011;41776;48.260;8.928;2023-02-28T03:09:56;7.53;;;4.07;;
1725;SDS011;41776;48.260;8.928;2023-02-28T03:12:24;7.33;;;4.27;;
1725;SDS011;41776;48.260;8.928;2023-02-28T03:15:03;9.33;;;4.37;;
1725;SDS011;41776;48.260;8.928;2023-02-28T03:17:39;8.00;;;4.60;;
1725;SDS011;41776;48.260;8.928;2023-02-28T03:20:16;7.67;;;3.90;;
1725;SDS011;41776;48.260;8.928;2023-02-28T03:22:54;10.07;;;4.20;;
1725;SDS011;41776;48.260;8.928;2023-02-28T03:25:28;8.27;;;4.47;;
1725;SDS011;41776;48.260;8.928;2023-02-28T03:28:03;6.83;;;3.97;;
1725;SDS011;41776;48.260;8.928;2023-02-28T03:30:36;8.80;;;4.20;;
1725;SDS011;41776;48.260;8.928;2023-02-28T03:33:08;7.27;;;3.97;;
1725;SDS011;41776;48.260;8.928;2023-02-28T03:35:40;8.93;;;4.57;;
1725;SDS011;41776;48.260;8.928;2023-02-28T03:38:13;8.47;;;4.50;;
1725;SDS011;41776;48.260;8.928;2023-02-28T03:40:45;6.93;;;4.17;;
1725;SDS011;41776;48.260;8.928;2023-02-28T03:43:16;8.40;;;4.40;;
1725;SDS011;41776;48.260;8.928;2023-02-28T03:45:47;6.80;;;4.13;;
1725;SDS011;41776;48.260;8.928;2023-02-28T03:48:18;9.63;;;4.73;;
1725;SDS011;41776;48.260;8.928;2023-02-28T03:50:48;9.40;;;4.27;;
1725;SDS011;41776;48.260;8.928;2023-02-28T03:53:20;9.40;;;3.57;;
1725;SDS011;41776;48.260;8.928;2023-02-28T03:55:51;8.60;;;5.13;;
1725;SDS011;41776;48.260;8.928;2023-02-28T03:58:24;8.27;;;4.53;;
1725;SDS011;41776;48.260;8.928;2023-02-28T04:00:57;7.73;;;3.90;;
1725;SDS011;41776;48.260;8.928;2023-02-28T04:03:33;7.17;;;4.13;;
1725;SDS011;41776;48.260;8.928;2023-02-28T04:06:00;9.00;;;4.60;;
1725;SDS011;41776;48.260;8.928;2023-02-28T04:08:28;8.70;;;4.67;;
1725;SDS011;41776;48.260;8.928;2023-02-28T04:10:55;8.87;;;4.57;;
1725;SDS011;41776;48.260;8.928;2023-02-28T04:13:26;8.00;;;4.50;;
1725;SDS011;41776;48.260;8.928;2023-02-28T04:15:52;7.67;;;4.60;;
1725;SDS011;41776;48.260;8.928;2023-02-28T04:18:19;9.23;;;4.80;;
1725;SDS011;41776;48.260;8.928;2023-02-28T04:20:45;8.63;;;4.67;;
1725;SDS011;41776;48.260;8.928;2023-02-28T04:23:12;8.03;;;4.67;;
1725;SDS011;41776;48.260;8.928;2023-02-28T04:25:39;10.60;;;5.60;;
1725;SDS011;41776;48.260;8.928;2023-02-28T04:28:06;11.77;;;4.80;;
1725;SDS011;41776;48.260;8.928;2023-02-28T04:30:32;10.17;;;5.60;;
1725;SDS011;41776;48.260;8.928;2023-02-28T04:33:00;13.07;;;5.70;;
1725;SDS011;41776;48.260;8.928;2023-02-28T04:35:27;9.27;;;5.00;;
1725;SDS011;41776;48.260;8.928;2023-02-28T04:37:53;10.50;;;5.40;;
1725;SDS011;41776;48.260;8.928;2023-02-28T04:40:19;13.03;;;5.07;;
1725;SDS011;41776;48.260;8.928;2023-02-28T04:42:47;11.00;;;5.33;;
1725;SDS011;41776;48.260;8.928;2023-02-28T04:45:14;11.20;;;5.40;;
1725;SDS011;41776;48.260;8.928;2023-02-28T04:47:42;10.13;;;5.30;;
1725;SDS011;41776;48.260;8.928;2023-02-28T04:50:09;13.03;;;5.57;;
1725;SDS011;41776;48.260;8.928;2023-02-28T04:52:36;10.77;;;5.43;;
1725;SDS011;41776;48.260;8.928;2023-02-28T04:55:02;11.30;;;5.60;;
1725;SDS011;41776;48.260;8.928;2023-02-28T04:57:30;10.47;;;5.67;;
1725;SDS011;41776;48.260;8.928;2023-02-28T04:59:58;9.40;;;5.23;;
1725;SDS011;41776;48.260;8.928;2023-02-28T05:02:24;12.57;;;5.47;;
1725;SDS011;41776;48.260;8.928;2023-02-28T05:04:51;10.07;;;5.67;;
1725;SDS011;41776;48.260;8.928;2023-02-28T05:07:17;10.07;;;5.47;;
1725;SDS011;41776;48.260;8.928;2023-02-28T05:09:44;10.30;;;5.47;;
1725;SDS011;41776;48.260;8.928;2023-02-28T05:12:10;10.20;;;5.13;;
1725;SDS011;41776;48.260;8.928;2023-02-28T05:14:36;10.63;;;5.80;;
1725;SDS011;41776;48.260;8.928;2023-02-28T05:17:04;8.43;;;5.23;;
1725;SDS011;41776;48.260;8.928;2023-02-28T05:19:31;12.77;;;6.00;;
1725;SDS011;41776;48.260;8.928;2023-02-28T05:21:57;11.03;;;5.33;;
1725;SDS011;41776;48.260;8.928;2023-02-28T05:24:24;9.47;;;5.43;;
1725;SDS011;41776;48.260;8.928;2023-02-28T05:26:51;11.87;;;6.00;;
1725;SDS011;41776;48.260;8.928;2023-02-28T05:29:19;14.33;;;6.57;;
1725;SDS011;41776;48.260;8.928;2023-02-28T05:31:46;13.63;;;6.13;;
1725;SDS011;41776;48.260;8.928;2023-02-28T05:34:14;12.13;;;6.07;;
1725;SDS011;41776;48.260;8.928;2023-02-28T05:36:41;10.80;;;5.20;;
1725;SDS011;41776;48.260;8.928;2023-02-28T05:39:07;9.43;;;5.60;;
1725;SDS011;41776;48.260;8.928;2023-02-28T05:41:37;14.13;;;5.80;;
1725;SDS011;41776;48.260;8.928;2023-02-28T05:44:05;12.33;;;6.10;;
1725;SDS011;41776;48.260;8.928;2023-02-28T05:46:31;13.63;;;6.93;;
1725;SDS011;41776;48.260;8.928;2023-02-28T05:48:58;10.30;;;5.63;;
1725;SDS011;41776;48.260;8.928;2023-02-28T05:51:27;12.60;;;5.93;;
1725;SDS011;41776;48.260;8.928;2023-02-28T05:53:53;11.77;;;6.13;;
1725;SDS011;41776;48.260;8.928;2023-02-28T05:56:20;13.37;;;6.37;;
1725;SDS011;41776;48.260;8.928;2023-02-28T05:58:46;14.03;;;6.50;;
1725;SDS011;41776;48.260;8.928;2023-02-28T06:01:20;18.60;;;7.73;;
1725;SDS011;41776;48.260;8.928;2023-02-28T06:03:56;11.30;;;6.50;;
1725;SDS011;41776;48.260;8.928;2023-02-28T06:06:24;10.90;;;6.17;;
1725;SDS011;41776;48.260;8.928;2023-02-28T06:08:52;14.77;;;7.10;;
1725;SDS011;41776;48.260;8.928;2023-02-28T06:11:19;16.60;;;6.87;;
1725;SDS011;41776;48.260;8.928;2023-02-28T06:13:45;18.30;;;7.10;;
1725;SDS011;41776;48.260;8.928;2023-02-28T06:16:12;14.57;;;6.67;;
1725;SDS011;41776;48.260;8.928;2023-02-28T06:18:38;13.27;;;6.63;;
1725;SDS011;41776;48.260;8.928;2023-02-28T06:21:05;12.13;;;6.20;;
1725;SDS011;41776;48.260;8.928;2023-02-28T06:23:31;15.93;;;7.10;;
1725;SDS011;41776;48.260;8.928;2023-02-28T06:25:59;13.87;;;6.77;;
1725;SDS011;41776;48.260;8.928;2023-02-28T06:28:26;15.20;;;7.30;;
1725;SDS011;41776;48.260;8.928;2023-02-28T06:30:53;14.80;;;6.97;;
1725;SDS011;41776;48.260;8.928;2023-02-28T06:33:20;14.73;;;7.40;;
1725;SDS011;41776;48.260;8.928;2023-02-28T06:35:46;14.30;;;7.00;;
1725;SDS011;41776;48.260;8.928;2023-02-28T06:38:14;15.17;;;7.17;;
1725;SDS011;41776;48.260;8.928;2023-02-28T06:40:40;11.00;;;6.53;;
1725;SDS011;41776;48.260;8.928;2023-02-28T06:43:08;17.47;;;6.90;;
1725;SDS011;41776;48.260;8.928;2023-02-28T06:45:40;17.63;;;7.43;;
1725;SDS011;41776;48.260;8.928;2023-02-28T06:48:07;14.33;;;7.60;;
1725;SDS011;41776;48.260;8.928;2023-02-28T06:50:35;16.23;;;9.20;;
1725;SDS011;41776;48.260;8.928;2023-02-28T06:53:01;15.90;;;8.27;;
1725;SDS011;41776;48.260;8.928;2023-02-28T06:55:28;14.90;;;7.67;;
1725;SDS011;41776;48.260;8.928;2023-02-28T06:57:54;15.90;;;7.47;;
1725;SDS011;41776;48.260;8.928;2023-02-28T07:00:22;14.87;;;7.73;;
1725;SDS011;41776;48.260;8.928;2023-02-28T07:02:49;13.20;;;6.63;;
1725;SDS011;41776;48.260;8.928;2023-02-28T07:05:16;15.83;;;7.77;;
1725;SDS011;41776;48.260;8.928;2023-02-28T07:07:42;16.30;;;7.37;;
1725;SDS011;41776;48.260;8.928;2023-02-28T07:10:11;17.13;;;7.60;;
1725;SDS011;41776;48.260;8.928;2023-02-28T07:12:41;15.83;;;7.53;;
1725;SDS011;41776;48.260;8.928;2023-02-28T07:15:09;16.23;;;8.03;;
1725;SDS011;41776;48.260;8.928;2023-02-28T07:17:37;15.83;;;7.47;;
1725;SDS011;41776;48.260;8.928;2023-02-28T07:20:03;15.37;;;7.73;;
1725;SDS011;41776;48.260;8.928;2023-02-28T07:22:31;13.23;;;7.20;;
1725;SDS011;41776;48.260;8.928;2023-02-28T07:24:57;15.70;;;7.70;;
1725;SDS011;41776;48.260;8.928;2023-02-28T07:27:23;14.97;;;7.30;;
1725;SDS011;41776;48.260;8.928;2023-02-28T07:29:50;15.37;;;8.13;;
1725;SDS011;41776;48.260;8.928;2023-02-28T07:32:17;14.73;;;7.10;;
1725;SDS011;41776;48.260;8.928;2023-02-28T07:34:45;13.67;;;7.20;;
1725;SDS011;41776;48.260;8.928;2023-02-28T07:37:12;16.27;;;8.17;;
1725;SDS011;41776;48.260;8.928;2023-02-28T07:39:38;18.95;;;10.35;;
1725;SDS011;41776;48.260;8.928;2023-02-28T07:42:06;15.03;;;8.30;;
1725;SDS011;41776;48.260;8.928;2023-02-28T07:44:35;16.63;;;8.10;;
1725;SDS011;41776;48.260;8.928;2023-02-28T07:47:05;16.03;;;8.10;;
1725;SDS011;41776;48.260;8.928;2023-02-28T07:49:32;15.93;;;8.00;;
1725;SDS011;41776;48.260;8.928;2023-02-28T07:51:59;16.57;;;7.63;;
1725;SDS011;41776;48.260;8.928;2023-02-28T07:54:26;12.60;;;7.20;;
1725;SDS011;41776;48.260;8.928;2023-02-28T07:56:52;18.53;;;8.37;;
1725;SDS011;41776;48.260;8.928;2023-02-28T07:59:19;15.77;;;7.33;;
1725;SDS011;41776;48.260;8.928;2023-02-28T08:01:45;15.87;;;7.80;;
1725;SDS011;41776;48.260;8.928;2023-02-28T08:04:14;16.40;;;7.93;;
1725;SDS011;41776;48.260;8.928;2023-02-28T08:06:41;18.53;;;7.87;;
1725;SDS011;41776;48.260;8.928;2023-02-28T08:09:08;16.47;;;8.03;;
1725;SDS011;41776;48.260;8.928;2023-02-28T08:11:35;20.40;;;8.60;;
1725;SDS011;41776;48.260;8.928;2023-02-28T08:14:02;18.97;;;8.13;;
1725;SDS011;41776;48.260;8.928;2023-02-28T08:16:28;15.80;;;7.77;;
1725;SDS011;41776;48.260;8.928;2023-02-28T08:18:55;13.33;;;7.90;;
1725;SDS011;41776;48.260;8.928;2023-02-28T08:21:21;19.43;;;7.93;;
1725;SDS011;41776;48.260;8.928;2023-02-28T08:23:48;14.90;;;7.57;;
1725;SDS011;41776;48.260;8.928;2023-02-28T08:26:17;15.13;;;6.80;;
1725;SDS011;41776;48.260;8.928;2023-02-28T08:28:44;14.30;;;7.37;;
1725;SDS011;41776;48.260;8.928;2023-02-28T08:31:11;18.33;;;7.90;;
1725;SDS011;41776;48.260;8.928;2023-02-28T08:33:39;16.53;;;7.60;;
1725;SDS011;41776;48.260;8.928;2023-02-28T08:36:07;16.20;;;8.17;;
1725;SDS011;41776;48.260;8.928;2023-02-28T08:38:35;15.43;;;7.70;;
1725;SDS011;41776;48.260;8.928;2023-02-28T08:41:03;17.57;;;8.00;;
1725;SDS011;41776;48.260;8.928;2023-02-28T08:43:33;12.73;;;6.90;;
1725;SDS011;41776;48.260;8.928;2023-02-28T08:46:00;14.83;;;8.00;;
1725;SDS011;41776;48.260;8.928;2023-02-28T08:48:27;18.30;;;8.10;;
1725;SDS011;41776;48.260;8.928;2023-02-28T08:50:55;15.20;;;7.80;;
1725;SDS011;41776;48.260;8.928;2023-02-28T08:53:22;14.83;;;8.57;;
1725;SDS011;41776;48.260;8.928;2023-02-28T08:55:55;16.07;;;7.50;;
1725;SDS011;41776;48.260;8.928;2023-02-28T08:58:23;17.03;;;7.90;;
1725;SDS011;41776;48.260;8.928;2023-02-28T09:00:51;14.47;;;7.63;;
1725;SDS011;41776;48.260;8.928;2023-02-28T09:03:17;15.13;;;7.90;;
1725;SDS011;41776;48.260;8.928;2023-02-28T09:05:51;14.37;;;7.97;;
1725;SDS011;41776;48.260;8.928;2023-02-28T09:08:18;16.17;;;8.53;;
1725;SDS011;41776;48.260;8.928;2023-02-28T09:10:44;14.60;;;8.20;;
1725;SDS011;41776;48.260;8.928;2023-02-28T09:13:11;14.57;;;7.57;;
1725;SDS011;41776;48.260;8.928;2023-02-28T09:15:37;17.97;;;8.13;;
1725;SDS011;41776;48.260;8.928;2023-02-28T09:18:05;18.53;;;8.07;;
1725;SDS011;41776;48.260;8.928;2023-02-28T09:20:32;14.67;;;8.43;;
1725;SDS011;41776;48.260;8.928;2023-02-28T09:22:58;19.90;;;8.90;;
1725;SDS011;41776;48.260;8.928;2023-02-28T09:25:25;17.27;;;8.30;;
1725;SDS011;41776;48.260;8.928;2023-02-28T09:27:51;17.90;;;8.27;;
1725;SDS011;41776;48.260;8.928;2023-02-28T09:30:18;15.73;;;7.80;;
1725;SDS011;41776;48.260;8.928;2023-02-28T09:32:44;23.33;;;8.07;;
1725;SDS011;41776;48.260;8.928;2023-02-28T09:35:18;13.33;;;7.07;;
1725;SDS011;41776;48.260;8.928;2023-02-28T09:37:46;17.90;;;8.47;;
1725;SDS011;41776;48.260;8.928;2023-02-28T09:40:12;18.20;;;8.03;;
1725;SDS011;41776;48.260;8.928;2023-02-28T09:42:42;15.63;;;7.93;;
1725;SDS011;41776;48.260;8.928;2023-02-28T09:45:13;13.43;;;7.33;;
1725;SDS011;41776;48.260;8.928;2023-02-28T09:47:50;19.93;;;8.37;;
1725;SDS011;41776;48.260;8.928;2023-02-28T09:50:23;15.17;;;8.03;;
1725;SDS011;41776;48.260;8.928;2023-02-28T09:52:58;14.30;;;7.97;;
1725;SDS011;41776;48.260;8.928;2023-02-28T09:55:26;16.83;;;8.77;;
1725;SDS011;41776;48.260;8.928;2023-02-28T09:57:56;14.13;;;7.40;;
1725;SDS011;41776;48.260;8.928;2023-02-28T10:00:26;19.03;;;8.23;;
1725;SDS011;41776;48.260;8.928;2023-02-28T10:03:05;13.97;;;7.57;;
1725;SDS011;41776;48.260;8.928;2023-02-28T10:05:43;15.43;;;8.30;;
1725;SDS011;41776;48.260;8.928;2023-02-28T10:08:19;13.23;;;7.67;;
1725;SDS011;41776;48.260;8.928;2023-02-28T10:10:51;14.57;;;7.73;;
1725;SDS011;41776;48.260;8.928;2023-02-28T10:13:23;15.97;;;8.20;;
1725;SDS011;41776;48.260;8.928;2023-02-28T10:15:53;17.27;;;7.53;;
1725;SDS011;41776;48.260;8.928;2023-02-28T10:18:25;13.23;;;7.43;;
1725;SDS011;41776;48.260;8.928;2023-02-28T10:20:58;14.73;;;7.53;;
1725;SDS011;41776;48.260;8.928;2023-02-28T10:23:27;14.40;;;7.80;;
1725;SDS011;41776;48.260;8.928;2023-02-28T10:25:59;18.43;;;8.93;;
1725;SDS011;41776;48.260;8.928;2023-02-28T10:28:28;17.37;;;8.33;;
1725;SDS011;41776;48.260;8.928;2023-02-28T10:30:55;15.77;;;8.00;;
1725;SDS011;41776;48.260;8.928;2023-02-28T10:33:23;13.90;;;7.60;;
1725;SDS011;41776;48.260;8.928;2023-02-28T10:35:52;15.90;;;8.33;;
1725;SDS011;41776;48.260;8.928;2023-02-28T10:38:21;18.00;;;8.67;;
1725;SDS011;41776;48.260;8.928;2023-02-28T10:40:49;15.90;;;8.50;;
1725;SDS011;41776;48.260;8.928;2023-02-28T10:43:19;14.57;;;7.70;;
1725;SDS011;41776;48.260;8.928;2023-02-28T10:45:55;16.13;;;8.33;;
1725;SDS011;41776;48.260;8.928;2023-02-28T10:48:26;16.87;;;8.13;;
1725;SDS011;41776;48.260;8.928;2023-02-28T10:50:56;14.90;;;7.03;;
1725;SDS011;41776;48.260;8.928;2023-02-28T10:53:30;20.73;;;7.93;;
1725;SDS011;41776;48.260;8.928;2023-02-28T10:56:00;16.10;;;8.10;;
1725;SDS011;41776;48.260;8.928;2023-02-28T10:58:29;12.83;;;7.50;;
1725;SDS011;41776;48.260;8.928;2023-02-28T11:00:57;17.77;;;8.77;;
1725;SDS011;41776;48.260;8.928;2023-02-28T11:03:28;14.27;;;7.67;;
1725;SDS011;41776;48.260;8.928;2023-02-28T11:05:57;20.80;;;7.90;;
1725;SDS011;41776;48.260;8.928;2023-02-28T11:08:24;16.80;;;7.70;;
1725;SDS011;41776;48.260;8.928;2023-02-28T11:10:55;13.30;;;7.37;;
1725;SDS011;41776;48.260;8.928;2023-02-28T11:13:32;16.73;;;8.23;;
1725;SDS011;41776;48.260;8.928;2023-02-28T11:16:00;14.13;;;7.43;;
1725;SDS011;41776;48.260;8.928;2023-02-28T11:18:30;19.50;;;8.13;;
1725;SDS011;41776;48.260;8.928;2023-02-28T11:21:04;16.83;;;8.20;;
1725;SDS011;41776;48.260;8.928;2023-02-28T11:23:32;18.10;;;8.40;;
1725;SDS011;41776;48.260;8.928;2023-02-28T11:26:03;14.27;;;7.60;;
1725;SDS011;41776;48.260;8.928;2023-02-28T11:28:35;15.13;;;8.20;;
1725;SDS011;41776;48.260;8.928;2023-02-28T11:31:05;17.67;;;8.80;;
1725;SDS011;41776;48.260;8.928;2023-02-28T11:33:42;14.23;;;8.17;;
1725;SDS011;41776;48.260;8.928;2023-02-28T11:36:11;16.60;;;8.50;;
1725;SDS011;41776;48.260;8.928;2023-02-28T11:38:40;15.23;;;7.70;;
1725;SDS011;41776;48.260;8.928;2023-02-28T11:41:14;15.20;;;8.30;;
1725;SDS011;41776;48.260;8.928;2023-02-28T11:43:55;14.40;;;7.97;;
1725;SDS011;41776;48.260;8.928;2023-02-28T11:46:33;13.60;;;7.43;;
1725;SDS011;41776;48.260;8.928;2023-02-28T11:49:10;15.17;;;7.63;;
1725;SDS011;41776;48.260;8.928;2023-02-28T11:51:49;17.50;;;8.20;;
1725;SDS011;41776;48.260;8.928;2023-02-28T11:54:28;12.33;;;7.17;;
1725;SDS011;41776;48.260;8.928;2023-02-28T11:57:14;13.83;;;7.97;;
1725;SDS011;41776;48.260;8.928;2023-02-28T11:59:53;10.10;;;6.70;;
1725;SDS011;41776;48.260;8.928;2023-02-28T12:02:33;21.93;;;7.07;;
1725;SDS011;41776;48.260;8.928;2023-02-28T12:05:20;13.13;;;7.93;;
1725;SDS011;41776;48.260;8.928;2023-02-28T12:08:00;18.13;;;8.17;;
1725;SDS011;41776;48.260;8.928;2023-02-28T12:10:34;13.60;;;7.60;;
1725;SDS011;41776;48.260;8.928;2023-02-28T12:13:12;13.83;;;7.30;;
1725;SDS011;41776;48.260;8.928;2023-02-28T12:15:53;14.90;;;7.80;;
1725;SDS011;41776;48.260;8.928;2023-02-28T12:18:53;15.47;;;7.60;;
1725;SDS011;41776;48.260;8.928;2023-02-28T12:21:41;14.40;;;8.23;;
1725;SDS011;41776;48.260;8.928;2023-02-28T12:24:22;15.73;;;8.00;;
1725;SDS011;41776;48.260;8.928;2023-02-28T12:27:02;14.40;;;7.30;;
1725;SDS011;41776;48.260;8.928;2023-02-28T12:29:37;14.53;;;7.37;;
1725;SDS011;41776;48.260;8.928;2023-02-28T12:32:13;12.90;;;7.30;;
1725;SDS011;41776;48.260;8.928;2023-02-28T12:34:46;18.77;;;7.57;;
1725;SDS011;41776;48.260;8.928;2023-02-28T12:37:17;14.00;;;7.57;;
1725;SDS011;41776;48.260;8.928;2023-02-28T12:39:49;11.87;;;7.00;;
1725;SDS011;41776;48.260;8.928;2023-02-28T12:42:23;13.83;;;7.60;;
1725;SDS011;41776;48.260;8.928;2023-02-28T12:44:56;16.10;;;7.13;;
1725;SDS011;41776;48.260;8.928;2023-02-28T12:47:27;14.00;;;7.43;;
1725;SDS011;41776;48.260;8.928;2023-02-28T12:49:55;13.47;;;7.37;;
1725;SDS011;41776;48.260;8.928;2023-02-28T12:52:26;13.60;;;8.30;;
1725;SDS011;41776;48.260;8.928;2023-02-28T12:54:59;13.67;;;7.03;;
1725;SDS011;41776;48.260;8.928;2023-02-28T12:57:32;13.83;;;7.00;;
1725;SDS011;41776;48.260;8.928;2023-02-28T13:00:04;16.27;;;7.57;;
1725;SDS011;41776;48.260;8.928;2023-02-28T13:02:45;12.63;;;6.57;;
1725;SDS011;41776;48.260;8.928;2023-02-28T13:05:32;12.67;;;7.27;;
1725;SDS011;41776;48.260;8.928;2023-02-28T13:11:25;13.30;;;7.37;;
1725;SDS011;41776;48.260;8.928;2023-02-28T13:13:59;11.60;;;7.13;;
1725;SDS011;41776;48.260;8.928;2023-02-28T13:16:29;15.13;;;7.73;;
1725;SDS011;41776;48.260;8.928;2023-02-28T13:19:17;15.43;;;8.30;;
1725;SDS011;41776;48.260;8.928;2023-02-28T13:21:49;18.10;;;7.83;;
1725;SDS011;41776;48.260;8.928;2023-02-28T13:24:37;16.17;;;8.03;;
1725;SDS011;41776;48.260;8.928;2023-02-28T13:30:00;13.63;;;7.37;;
1725;SDS011;41776;48.260;8.928;2023-02-28T13:32:33;14.40;;;8.03;;
1725;SDS011;41776;48.260;8.928;2023-02-28T13:35:14;13.20;;;7.57;;
1725;SDS011;41776;48.260;8.928;2023-02-28T13:38:09;15.03;;;7.63;;
1725;SDS011;41776;48.260;8.928;2023-02-28T13:40:50;14.93;;;7.33;;
1725;SDS011;41776;48.260;8.928;2023-02-28T13:43:17;11.97;;;7.50;;
1725;SDS011;41776;48.260;8.928;2023-02-28T13:46:05;14.57;;;7.83;;
1725;SDS011;41776;48.260;8.928;2023-02-28T13:48:37;15.20;;;7.43;;
1725;SDS011;41776;48.260;8.928;2023-02-28T13:54:07;14.83;;;6.90;;
1725;SDS011;41776;48.260;8.928;2023-02-28T13:56:47;15.17;;;7.50;;
1725;SDS011;41776;48.260;8.928;2023-02-28T13:59:21;11.67;;;7.37;;
1725;SDS011;41776;48.260;8.928;2023-02-28T14:02:01;13.60;;;6.47;;
1725;SDS011;41776;48.260;8.928;2023-02-28T14:04:50;12.13;;;7.17;;
1725;SDS011;41776;48.260;8.928;2023-02-28T14:07:26;12.77;;;7.27;;
1725;SDS011;41776;48.260;8.928;2023-02-28T14:09:57;13.73;;;7.47;;
1725;SDS011;41776;48.260;8.928;2023-02-28T14:15:27;12.00;;;7.40;;
1725;SDS011;41776;48.260;8.928;2023-02-28T14:18:00;12.13;;;7.07;;
1725;SDS011;41776;48.260;8.928;2023-02-28T14:20:32;12.33;;;6.83;;
1725;SDS011;41776;48.260;8.928;2023-02-28T14:23:02;12.83;;;7.17;;
1725;SDS011;41776;48.260;8.928;2023-02-28T14:25:37;13.43;;;7.57;;
1725;SDS011;41776;48.260;8.928;2023-02-28T14:28:12;14.90;;;7.47;;
1725;SDS011;41776;48.260;8.928;2023-02-28T14:33:42;13.83;;;7.47;;
1725;SDS011;41776;48.260;8.928;2023-02-28T14:36:26;11.87;;;6.77;;
1725;SDS011;41776;48.260;8.928;2023-02-28T14:38:58;15.60;;;7.10;;
1725;SDS011;41776;48.260;8.928;2023-02-28T14:41:29;13.00;;;7.23;;
1725;SDS011;41776;48.260;8.928;2023-02-28T14:43:57;12.03;;;6.90;;
1725;SDS011;41776;48.260;8.928;2023-02-28T14:46:26;12.27;;;6.93;;
1725;SDS011;41776;48.260;8.928;2023-02-28T14:48:56;11.57;;;7.03;;
1725;SDS011;41776;48.260;8.928;2023-02-28T14:51:23;10.70;;;7.03;;
1725;SDS011;41776;48.260;8.928;2023-02-28T14:53:56;10.57;;;7.13;;
1725;SDS011;41776;48.260;8.928;2023-02-28T14:56:26;10.23;;;6.70;;
1725;SDS011;41776;48.260;8.928;2023-02-28T14:58:57;12.37;;;6.93;;
1725;SDS011;41776;48.260;8.928;2023-02-28T15:01:24;12.23;;;7.27;;
1725;SDS011;41776;48.260;8.928;2023-02-28T15:04:00;11.03;;;7.07;;
1725;SDS011;41776;48.260;8.928;2023-02-28T15:06:30;13.33;;;7.23;;
1725;SDS011;41776;48.260;8.928;2023-02-28T15:09:07;11.60;;;7.13;;
1725;SDS011;41776;48.260;8.928;2023-02-28T15:11:45;12.50;;;7.10;;
1725;SDS011;41776;48.260;8.928;2023-02-28T15:14:18;13.73;;;7.17;;
1725;SDS011;41776;48.260;8.928;2023-02-28T15:16:51;11.40;;;6.70;;
1725;SDS011;41776;48.260;8.928;2023-02-28T15:19:24;12.37;;;7.57;;
1725;SDS011;41776;48.260;8.928;2023-02-28T15:21:54;12.63;;;7.17;;
1725;SDS011;41776;48.260;8.928;2023-02-28T15:24:30;15.07;;;7.03;;
1725;SDS011;41776;48.260;8.928;2023-02-28T15:27:03;11.50;;;7.40;;
1725;SDS011;41776;48.260;8.928;2023-02-28T15:29:37;12.77;;;7.20;;
1725;SDS011;41776;48.260;8.928;2023-02-28T15:32:20;14.87;;;7.07;;
1725;SDS011;41776;48.260;8.928;2023-02-28T15:34:50;11.33;;;7.13;;
1725;SDS011;41776;48.260;8.928;2023-02-28T15:37:33;12.50;;;7.03;;